sensor_id;sensor_type;location;lat;lon;timestamp;pressure;altitude;pressure_sealevel;temperature;humidity
50770;BME280;36740;48.698;11.472;2024-01-30T00:01:55;98858.59;;;-2.09;100.00
50770;BME280;36740;48.698;11.472;2024-01-30T00:04:40;98856.97;;;-2.13;100.00
50770;BME280;36740;48.698;11.472;2024-01-30T00:07:26;98856.97;;;-2.13;100.00
50770;BME280;36740;48.698;11.472;2024-01-30T00:10:12;98858.63;;;-2.12;100.00
50770;BME280;36740;48.698;11.472;2024-01-30T00:12:57;98860.38;;;-2.16;100.00
50770;BME280;36740;48.698;11.472;2024-01-30T00:15:43;98861.28;;;-2.23;100.00
50770;BME280;36740;48.698;11.472;2024-01-30T00:18:29;98859.69;;;-2.27;100.00
50770;BME280;36740;48.698;11.472;2024-01-30T00:21:15;98862.25;;;-2.29;100.00
50770;BME280;36740;48.698;11.472;2024-01-30T00:24:01;98863.94;;;-2.31;100.00
50770;BME280;36740;48.698;11.472;2024-01-30T00:26:46;98875.78;;;-2.37;100.00
50770;BME280;36740;48.698;11.472;2024-01-30T00:29:32;98872.31;;;-2.32;100.00
50770;BME280;36740;48.698;11.472;2024-01-30T00:32:19;98876.56;;;-2.34;100.00
50770;BME280;36740;48.698;11.472;2024-01-30T00:35:05;98867.53;;;-2.46;100.00
50770;BME280;36740;48.698;11.472;2024-01-30T00:37:51;98876.78;;;-2.51;100.00
50770;BME280;36740;48.698;11.472;2024-01-30T00:40:37;98875.06;;;-2.46;100.00
50770;BME280;36740;48.698;11.472;2024-01-30T00:43:22;98880.13;;;-2.49;100.00
50770;BME280;36740;48.698;11.472;2024-01-30T00:46:10;98879.34;;;-2.54;100.00
50770;BME280;36740;48.698;11.472;2024-01-30T00:48:56;98881.03;;;-2.56;100.00
50770;BME280;36740;48.698;11.472;2024-01-30T00:51:41;98877.44;;;-2.38;100.00
50770;BME280;36740;48.698;11.472;2024-01-30T00:54:27;98885.88;;;-2.42;100.00
50770;BME280;36740;48.698;11.472;2024-01-30T00:57:13;98881.03;;;-2.56;100.00
50770;BME280;36740;48.698;11.472;2024-01-30T00:59:59;98889.28;;;-2.48;100.00
50770;BME280;36740;48.698;11.472;2024-01-30T01:02:44;98881.91;;;-2.57;100.00
50770;BME280;36740;48.698;11.472;2024-01-30T01:05:32;98875.13;;;-2.50;100.00
50770;BME280;36740;48.698;11.472;2024-01-30T01:08:18;98881.16;;;-2.64;100.00
50770;BME280;36740;48.698;11.472;2024-01-30T01:11:03;98880.47;;;-2.73;100.00
50770;BME280;36740;48.698;11.472;2024-01-30T01:13:49;98882.19;;;-2.77;100.00
50770;BME280;36740;48.698;11.472;2024-01-30T01:16:35;98883.78;;;-2.71;100.00
50770;BME280;36740;48.698;11.472;2024-01-30T01:19:21;98877.16;;;-2.75;100.00
50770;BME280;36740;48.698;11.472;2024-01-30T01:22:07;98879.72;;;-2.80;100.00
50770;BME280;36740;48.698;11.472;2024-01-30T01:24:52;98883.72;;;-2.67;100.00
50770;BME280;36740;48.698;11.472;2024-01-30T01:27:38;98876.03;;;-2.57;100.00
50770;BME280;36740;48.698;11.472;2024-01-30T01:30:26;98892.78;;;-2.56;100.00
50770;BME280;36740;48.698;11.472;2024-01-30T01:33:12;98891.28;;;-2.68;100.00
50770;BME280;36740;48.698;11.472;2024-01-30T01:36:00;98892.22;;;-2.77;100.00
50770;BME280;36740;48.698;11.472;2024-01-30T01:38:47;98886.31;;;-2.74;100.00
50770;BME280;36740;48.698;11.472;2024-01-30T01:41:33;98892.97;;;-2.70;100.00
50770;BME280;36740;48.698;11.472;2024-01-30T01:44:19;98890.34;;;-2.63;100.00
50770;BME280;36740;48.698;11.472;2024-01-30T01:47:05;98886.31;;;-2.73;100.00
50770;BME280;36740;48.698;11.472;2024-01-30T01:49:51;98888.69;;;-2.62;100.00
50770;BME280;36740;48.698;11.472;2024-01-30T01:52:39;98885.34;;;-2.66;100.00
50770;BME280;36740;48.698;11.472;2024-01-30T01:55:25;98878.00;;;-2.76;100.00
50770;BME280;36740;48.698;11.472;2024-01-30T01:58:14;98877.25;;;-2.85;100.00
50770;BME280;36740;48.698;11.472;2024-01-30T02:01:00;98878.78;;;-2.74;100.00
50770;BME280;36740;48.698;11.472;2024-01-30T02:03:46;98874.63;;;-2.75;100.00
50770;BME280;36740;48.698;11.472;2024-01-30T02:06:33;98875.72;;;-2.95;100.00
50770;BME280;36740;48.698;11.472;2024-01-30T02:09:19;98879.03;;;-2.93;100.00
50770;BME280;36740;48.698;11.472;2024-01-30T02:12:05;98869.94;;;-3.00;100.00
50770;BME280;36740;48.698;11.472;2024-01-30T02:14:51;98873.03;;;-2.83;100.00
50770;BME280;36740;48.698;11.472;2024-01-30T02:17:37;98868.03;;;-2.84;100.00
50770;BME280;36740;48.698;11.472;2024-01-30T02:20:24;98869.72;;;-2.83;100.00
50770;BME280;36740;48.698;11.472;2024-01-30T02:23:11;98867.28;;;-2.89;100.00
50770;BME280;36740;48.698;11.472;2024-01-30T02:25:58;98862.16;;;-2.80;100.00
50770;BME280;36740;48.698;11.472;2024-01-30T02:28:43;98869.78;;;-2.88;100.00
50770;BME280;36740;48.698;11.472;2024-01-30T02:31:29;98861.59;;;-3.04;100.00
50770;BME280;36740;48.698;11.472;2024-01-30T02:34:15;98863.97;;;-2.91;100.00
50770;BME280;36740;48.698;11.472;2024-01-30T02:37:01;98869.91;;;-2.99;100.00
50770;BME280;36740;48.698;11.472;2024-01-30T02:39:47;98866.63;;;-3.04;100.00
50770;BME280;36740;48.698;11.472;2024-01-30T02:42:33;98865.03;;;-3.11;100.00
50770;BME280;36740;48.698;11.472;2024-01-30T02:45:19;98863.25;;;-3.01;100.00
50770;BME280;36740;48.698;11.472;2024-01-30T02:48:05;98869.97;;;-3.03;100.00
50770;BME280;36740;48.698;11.472;2024-01-30T02:50:50;98874.09;;;-3.01;100.00
50770;BME280;36740;48.698;11.472;2024-01-30T02:53:36;98863.31;;;-3.06;100.00
50770;BME280;36740;48.698;11.472;2024-01-30T02:56:22;98869.81;;;-2.91;100.00
50770;BME280;36740;48.698;11.472;2024-01-30T02:59:08;98864.94;;;-3.02;100.00
50770;BME280;36740;48.698;11.472;2024-01-30T03:01:54;98859.91;;;-3.02;100.00
50770;BME280;36740;48.698;11.472;2024-01-30T03:04:42;98857.50;;;-3.09;100.00
50770;BME280;36740;48.698;11.472;2024-01-30T03:07:28;98860.81;;;-3.09;100.00
50770;BME280;36740;48.698;11.472;2024-01-30T03:10:14;98863.31;;;-3.06;100.00
50770;BME280;36740;48.698;11.472;2024-01-30T03:13:00;98855.03;;;-3.14;100.00
50770;BME280;36740;48.698;11.472;2024-01-30T03:15:46;98854.31;;;-3.24;100.00
50770;BME280;36740;48.698;11.472;2024-01-30T03:18:31;98847.56;;;-3.20;100.00
50770;BME280;36740;48.698;11.472;2024-01-30T03:21:17;98847.44;;;-3.06;100.00
50770;BME280;36740;48.698;11.472;2024-01-30T03:24:03;98844.63;;;-2.85;100.00
50770;BME280;36740;48.698;11.472;2024-01-30T03:26:49;98846.84;;;-2.65;100.00
50770;BME280;36740;48.698;11.472;2024-01-30T03:29:34;98849.34;;;-2.63;100.00
50770;BME280;36740;48.698;11.472;2024-01-30T03:32:20;98857.66;;;-2.60;100.00
50770;BME280;36740;48.698;11.472;2024-01-30T03:35:06;98852.09;;;-2.79;100.00
50770;BME280;36740;48.698;11.472;2024-01-30T03:37:52;98848.88;;;-2.88;100.00
50770;BME280;36740;48.698;11.472;2024-01-30T03:40:38;98848.03;;;-2.90;100.00
50770;BME280;36740;48.698;11.472;2024-01-30T03:43:24;98860.38;;;-2.73;100.00
50770;BME280;36740;48.698;11.472;2024-01-30T03:46:11;98861.97;;;-2.68;100.00
50770;BME280;36740;48.698;11.472;2024-01-30T03:48:57;98852.06;;;-2.77;100.00
50770;BME280;36740;48.698;11.472;2024-01-30T03:51:43;98856.25;;;-2.79;100.00
50770;BME280;36740;48.698;11.472;2024-01-30T03:54:29;98855.66;;;-2.95;100.00
50770;BME280;36740;48.698;11.472;2024-01-30T03:57:14;98854.06;;;-3.04;100.00
50770;BME280;36740;48.698;11.472;2024-01-30T04:00:00;98845.78;;;-3.09;100.00
50770;BME280;36740;48.698;11.472;2024-01-30T04:02:46;98850.03;;;-3.14;100.00
50770;BME280;36740;48.698;11.472;2024-01-30T04:05:32;98846.66;;;-3.11;100.00
50770;BME280;36740;48.698;11.472;2024-01-30T04:08:18;98846.66;;;-3.11;100.00
50770;BME280;36740;48.698;11.472;2024-01-30T04:11:07;98845.00;;;-3.14;100.00
50770;BME280;36740;48.698;11.472;2024-01-30T04:13:52;98850.03;;;-3.14;100.00
50770;BME280;36740;48.698;11.472;2024-01-30T04:16:38;98849.19;;;-3.13;100.00
50770;BME280;36740;48.698;11.472;2024-01-30T04:19:24;98842.53;;;-3.19;100.00
50770;BME280;36740;48.698;11.472;2024-01-30T04:22:10;98846.78;;;-3.22;100.00
50770;BME280;36740;48.698;11.472;2024-01-30T04:24:56;98846.00;;;-3.26;100.00
50770;BME280;36740;48.698;11.472;2024-01-30T04:27:41;98857.75;;;-3.29;100.00
50770;BME280;36740;48.698;11.472;2024-01-30T04:30:27;98851.09;;;-3.34;100.00
50770;BME280;36740;48.698;11.472;2024-01-30T04:33:13;98847.00;;;-3.41;100.00
50770;BME280;36740;48.698;11.472;2024-01-30T04:35:58;98852.03;;;-3.42;100.00
50770;BME280;36740;48.698;11.472;2024-01-30T04:38:44;98845.31;;;-3.40;100.00
50770;BME280;36740;48.698;11.472;2024-01-30T04:41:30;98844.50;;;-3.42;100.00
50770;BME280;36740;48.698;11.472;2024-01-30T04:44:17;98848.69;;;-3.41;100.00
50770;BME280;36740;48.698;11.472;2024-01-30T04:47:03;98848.72;;;-3.46;100.00
50770;BME280;36740;48.698;11.472;2024-01-30T04:49:51;98849.50;;;-3.41;100.00
50770;BME280;36740;48.698;11.472;2024-01-30T04:52:37;98852.81;;;-3.37;100.00
50770;BME280;36740;48.698;11.472;2024-01-30T04:55:22;98852.81;;;-3.39;100.00
50770;BME280;36740;48.698;11.472;2024-01-30T04:58:08;98857.06;;;-3.44;100.00
50770;BME280;36740;48.698;11.472;2024-01-30T05:00:54;98862.25;;;-3.61;100.00
50770;BME280;36740;48.698;11.472;2024-01-30T05:03:40;98849.78;;;-3.67;100.00
50770;BME280;36740;48.698;11.472;2024-01-30T05:06:28;98852.97;;;-3.49;100.00
50770;BME280;36740;48.698;11.472;2024-01-30T05:09:14;98862.13;;;-3.50;100.00
50770;BME280;36740;48.698;11.472;2024-01-30T05:12:00;98856.25;;;-3.46;100.00
50770;BME280;36740;48.698;11.472;2024-01-30T05:14:46;98849.59;;;-3.48;100.00
50770;BME280;36740;48.698;11.472;2024-01-30T05:17:31;98857.22;;;-3.58;100.00
50770;BME280;36740;48.698;11.472;2024-01-30T05:20:17;98867.16;;;-3.52;100.00
50770;BME280;36740;48.698;11.472;2024-01-30T05:23:03;98865.41;;;-3.43;100.00
50770;BME280;36740;48.698;11.472;2024-01-30T05:25:49;98864.63;;;-3.47;100.00
50770;BME280;36740;48.698;11.472;2024-01-30T05:28:35;98859.72;;;-3.58;100.00
50770;BME280;36740;48.698;11.472;2024-01-30T05:31:20;98862.84;;;-3.37;100.00
50770;BME280;36740;48.698;11.472;2024-01-30T05:34:06;98854.56;;;-3.44;100.00
50770;BME280;36740;48.698;11.472;2024-01-30T05:36:52;98851.28;;;-3.49;100.00
50770;BME280;36740;48.698;11.472;2024-01-30T05:39:38;98854.69;;;-3.56;100.00
50770;BME280;36740;48.698;11.472;2024-01-30T05:42:23;98856.44;;;-3.63;100.00
50770;BME280;36740;48.698;11.472;2024-01-30T05:45:09;98856.53;;;-3.72;100.00
50770;BME280;36740;48.698;11.472;2024-01-30T05:47:55;98861.50;;;-3.67;100.00
50770;BME280;36740;48.698;11.472;2024-01-30T05:50:41;98854.94;;;-3.79;100.00
50770;BME280;36740;48.698;11.472;2024-01-30T05:53:26;98858.22;;;-3.73;100.00
50770;BME280;36740;48.698;11.472;2024-01-30T05:56:12;98858.22;;;-3.73;100.00
50770;BME280;36740;48.698;11.472;2024-01-30T05:58:58;98860.75;;;-3.79;100.00
50770;BME280;36740;48.698;11.472;2024-01-30T06:01:47;98859.94;;;-3.78;100.00
50770;BME280;36740;48.698;11.472;2024-01-30T06:04:33;98859.19;;;-3.86;100.00
50770;BME280;36740;48.698;11.472;2024-01-30T06:07:19;98866.63;;;-3.83;100.00
50770;BME280;36740;48.698;11.472;2024-01-30T06:10:05;98874.00;;;-3.64;100.00
50770;BME280;36740;48.698;11.472;2024-01-30T06:12:52;98878.25;;;-3.73;100.00
50770;BME280;36740;48.698;11.472;2024-01-30T06:15:38;98881.63;;;-3.77;100.00
50770;BME280;36740;48.698;11.472;2024-01-30T06:18:24;98887.50;;;-3.79;100.00
50770;BME280;36740;48.698;11.472;2024-01-30T06:21:11;98878.28;;;-3.74;100.00
50770;BME280;36740;48.698;11.472;2024-01-30T06:23:56;98876.44;;;-3.60;100.00
50770;BME280;36740;48.698;11.472;2024-01-30T06:26:42;98878.22;;;-3.69;100.00
50770;BME280;36740;48.698;11.472;2024-01-30T06:29:28;98884.03;;;-3.64;100.00
50770;BME280;36740;48.698;11.472;2024-01-30T06:32:14;98883.19;;;-3.65;100.00
50770;BME280;36740;48.698;11.472;2024-01-30T06:35:01;98883.13;;;-3.60;100.00
50770;BME280;36740;48.698;11.472;2024-01-30T06:37:47;98887.34;;;-3.62;100.00
50770;BME280;36740;48.698;11.472;2024-01-30T06:40:33;98887.34;;;-3.64;100.00
50770;BME280;36740;48.698;11.472;2024-01-30T06:43:18;98881.44;;;-3.58;100.00
50770;BME280;36740;48.698;11.472;2024-01-30T06:46:04;98883.97;;;-3.61;100.00
50770;BME280;36740;48.698;11.472;2024-01-30T06:48:50;98885.69;;;-3.66;100.00
50770;BME280;36740;48.698;11.472;2024-01-30T06:51:36;98879.81;;;-3.62;100.00
50770;BME280;36740;48.698;11.472;2024-01-30T06:54:21;98885.66;;;-3.60;100.00
50770;BME280;36740;48.698;11.472;2024-01-30T06:57:07;98894.78;;;-3.55;100.00
50770;BME280;36740;48.698;11.472;2024-01-30T06:59:57;98889.81;;;-3.58;100.00
50770;BME280;36740;48.698;11.472;2024-01-30T07:02:42;98891.47;;;-3.58;100.00
50770;BME280;36740;48.698;11.472;2024-01-30T07:05:28;98894.84;;;-3.61;100.00
50770;BME280;36740;48.698;11.472;2024-01-30T07:08:15;98897.25;;;-3.52;100.00
50770;BME280;36740;48.698;11.472;2024-01-30T07:11:02;98899.75;;;-3.50;100.00
50770;BME280;36740;48.698;11.472;2024-01-30T07:13:48;98903.00;;;-3.42;100.00
50770;BME280;36740;48.698;11.472;2024-01-30T07:16:34;98910.50;;;-3.39;100.00
50770;BME280;36740;48.698;11.472;2024-01-30T07:19:20;98900.44;;;-3.36;100.00
50770;BME280;36740;48.698;11.472;2024-01-30T07:22:06;98903.72;;;-3.30;100.00
50770;BME280;36740;48.698;11.472;2024-01-30T07:24:51;98904.53;;;-3.28;100.00
50770;BME280;36740;48.698;11.472;2024-01-30T07:27:37;98901.22;;;-3.30;100.00
50770;BME280;36740;48.698;11.472;2024-01-30T07:30:23;98904.50;;;-3.27;100.00
50770;BME280;36740;48.698;11.472;2024-01-30T07:33:09;98901.94;;;-3.21;100.00
50770;BME280;36740;48.698;11.472;2024-01-30T07:35:55;98906.94;;;-3.18;100.00
50770;BME280;36740;48.698;11.472;2024-01-30T07:38:41;98915.94;;;-3.00;100.00
50770;BME280;36740;48.698;11.472;2024-01-30T07:41:26;98923.53;;;-3.06;100.00
50770;BME280;36740;48.698;11.472;2024-01-30T07:44:12;98914.19;;;-2.96;100.00
50770;BME280;36740;48.698;11.472;2024-01-30T07:46:58;98931.66;;;-2.87;100.00
50770;BME280;36740;48.698;11.472;2024-01-30T07:49:45;98924.94;;;-2.85;100.00
50770;BME280;36740;48.698;11.472;2024-01-30T07:52:31;98936.47;;;-2.70;100.00
50770;BME280;36740;48.698;11.472;2024-01-30T07:55:16;98928.88;;;-2.65;100.00
50770;BME280;36740;48.698;11.472;2024-01-30T07:58:02;98938.81;;;-2.59;100.00
50770;BME280;36740;48.698;11.472;2024-01-30T08:00:50;98932.13;;;-2.57;100.00
50770;BME280;36740;48.698;11.472;2024-01-30T08:03:37;98931.19;;;-2.50;100.00
50770;BME280;36740;48.698;11.472;2024-01-30T08:06:25;98942.78;;;-2.41;100.00
50770;BME280;36740;48.698;11.472;2024-01-30T08:09:10;98945.09;;;-2.26;100.00
50770;BME280;36740;48.698;11.472;2024-01-30T08:11:56;98953.34;;;-2.16;100.00
50770;BME280;36740;48.698;11.472;2024-01-30T08:14:42;98959.69;;;-1.95;100.00
50770;BME280;36740;48.698;11.472;2024-01-30T08:17:28;98949.50;;;-1.86;100.00
50770;BME280;36740;48.698;11.472;2024-01-30T08:20:14;98951.75;;;-1.70;100.00
50770;BME280;36740;48.698;11.472;2024-01-30T08:22:59;98951.25;;;-1.39;100.00
50770;BME280;36740;48.698;11.472;2024-01-30T08:25:46;98951.94;;;-1.31;100.00
50770;BME280;36740;48.698;11.472;2024-01-30T08:28:31;98953.19;;;-1.07;100.00
50770;BME280;36740;48.698;11.472;2024-01-30T08:31:17;98950.09;;;-0.78;100.00
50770;BME280;36740;48.698;11.472;2024-01-30T08:34:03;98944.72;;;-0.61;100.00
50770;BME280;36740;48.698;11.472;2024-01-30T08:36:49;98952.03;;;-0.50;100.00
50770;BME280;36740;48.698;11.472;2024-01-30T08:39:34;98940.66;;;-0.29;100.00
50770;BME280;36740;48.698;11.472;2024-01-30T08:42:20;98941.63;;;0.03;100.00
50770;BME280;36740;48.698;11.472;2024-01-30T08:45:08;98946.56;;;0.42;99.96
50770;BME280;36740;48.698;11.472;2024-01-30T08:47:54;98939.50;;;0.57;97.84
50770;BME280;36740;48.698;11.472;2024-01-30T08:50:40;98933.38;;;0.65;96.87
50770;BME280;36740;48.698;11.472;2024-01-30T08:53:26;98927.19;;;0.76;95.49
50770;BME280;36740;48.698;11.472;2024-01-30T08:56:12;98924.63;;;1.08;94.01
50770;BME280;36740;48.698;11.472;2024-01-30T08:58:57;98926.84;;;1.49;92.47
50770;BME280;36740;48.698;11.472;2024-01-30T09:01:43;98922.22;;;1.90;90.56
50770;BME280;36740;48.698;11.472;2024-01-30T09:04:29;98920.22;;;2.27;88.65
50770;BME280;36740;48.698;11.472;2024-01-30T09:07:14;98918.47;;;2.29;86.53
50770;BME280;36740;48.698;11.472;2024-01-30T09:10:00;98915.94;;;2.79;84.84
50770;BME280;36740;48.698;11.472;2024-01-30T09:12:47;98922.84;;;3.21;82.57
50770;BME280;36740;48.698;11.472;2024-01-30T09:15:33;98902.69;;;3.42;80.05
50770;BME280;36740;48.698;11.472;2024-01-30T09:18:18;98910.19;;;3.87;78.39
50770;BME280;36740;48.698;11.472;2024-01-30T09:21:04;98914.59;;;4.47;76.18
50770;BME280;36740;48.698;11.472;2024-01-30T09:23:54;98906.38;;;4.61;73.96
50770;BME280;36740;48.698;11.472;2024-01-30T09:26:40;98903.22;;;4.56;73.08
50770;BME280;36740;48.698;11.472;2024-01-30T09:29:26;98884.50;;;4.38;72.19
50770;BME280;36740;48.698;11.472;2024-01-30T09:32:12;98900.47;;;5.00;71.51
50770;BME280;36740;48.698;11.472;2024-01-30T09:34:57;98900.88;;;5.65;69.58
50770;BME280;36740;48.698;11.472;2024-01-30T09:37:43;98889.94;;;6.35;66.43
50770;BME280;36740;48.698;11.472;2024-01-30T09:40:29;98881.47;;;6.85;64.13
50770;BME280;36740;48.698;11.472;2024-01-30T09:43:17;98880.56;;;7.34;61.64
50770;BME280;36740;48.698;11.472;2024-01-30T09:46:11;98878.22;;;6.66;62.35
50770;BME280;36740;48.698;11.472;2024-01-30T09:49:02;98881.13;;;6.91;62.52
50770;BME280;36740;48.698;11.472;2024-01-30T09:51:48;98876.25;;;6.71;62.20
50770;BME280;36740;48.698;11.472;2024-01-30T09:54:35;98893.09;;;7.07;62.57
50770;BME280;36740;48.698;11.472;2024-01-30T09:57:21;98880.72;;;7.31;61.48
50770;BME280;36740;48.698;11.472;2024-01-30T10:00:07;98883.13;;;7.34;61.45
50770;BME280;36740;48.698;11.472;2024-01-30T10:02:54;98879.59;;;7.05;61.23
50770;BME280;36740;48.698;11.472;2024-01-30T10:05:40;98879.84;;;7.00;62.56
50770;BME280;36740;48.698;11.472;2024-01-30T10:08:26;98876.63;;;7.12;61.56
50770;BME280;36740;48.698;11.472;2024-01-30T10:11:12;98885.09;;;8.21;60.23
50770;BME280;36740;48.698;11.472;2024-01-30T10:13:58;98871.19;;;8.56;58.49
50770;BME280;36740;48.698;11.472;2024-01-30T10:16:46;98864.69;;;8.64;57.80
50770;BME280;36740;48.698;11.472;2024-01-30T10:19:32;98866.00;;;8.86;57.08
50770;BME280;36740;48.698;11.472;2024-01-30T10:22:17;98867.84;;;9.26;56.68
50770;BME280;36740;48.698;11.472;2024-01-30T10:25:04;98862.16;;;9.62;55.97
50770;BME280;36740;48.698;11.472;2024-01-30T10:27:53;98849.19;;;9.51;54.95
50770;BME280;36740;48.698;11.472;2024-01-30T10:30:42;98856.69;;;9.27;56.66
50770;BME280;36740;48.698;11.472;2024-01-30T10:33:28;98850.94;;;9.90;54.90
50770;BME280;36740;48.698;11.472;2024-01-30T10:36:14;98842.41;;;9.77;55.05
50770;BME280;36740;48.698;11.472;2024-01-30T10:39:01;98835.06;;;9.98;54.07
50770;BME280;36740;48.698;11.472;2024-01-30T10:41:47;98833.31;;;10.24;54.35
50770;BME280;36740;48.698;11.472;2024-01-30T10:47:29;98825.03;;;9.55;55.38
50770;BME280;36740;48.698;11.472;2024-01-30T10:50:15;98822.50;;;9.68;55.37
50770;BME280;36740;48.698;11.472;2024-01-30T10:53:01;98824.69;;;10.00;54.50
50770;BME280;36740;48.698;11.472;2024-01-30T10:55:49;98820.22;;;10.03;53.87
50770;BME280;36740;48.698;11.472;2024-01-30T10:58:37;98810.56;;;9.94;53.74
50770;BME280;36740;48.698;11.472;2024-01-30T11:01:23;98816.41;;;10.73;53.20
50770;BME280;36740;48.698;11.472;2024-01-30T11:04:11;98817.16;;;12.64;49.18
50770;BME280;36740;48.698;11.472;2024-01-30T11:06:57;98794.91;;;13.61;45.95
50770;BME280;36740;48.698;11.472;2024-01-30T11:09:53;98782.63;;;12.78;45.91
50770;BME280;36740;48.698;11.472;2024-01-30T11:12:40;98795.06;;;12.61;47.65
50770;BME280;36740;48.698;11.472;2024-01-30T11:15:31;98772.16;;;12.24;46.85
50770;BME280;36740;48.698;11.472;2024-01-30T11:18:29;98781.56;;;10.45;50.40
50770;BME280;36740;48.698;11.472;2024-01-30T11:21:15;98785.56;;;10.23;52.44
50770;BME280;36740;48.698;11.472;2024-01-30T11:24:02;98797.94;;;11.05;51.15
50770;BME280;36740;48.698;11.472;2024-01-30T11:26:58;98777.06;;;10.48;50.22
50770;BME280;36740;48.698;11.472;2024-01-30T11:29:50;98781.41;;;10.72;51.08
50770;BME280;36740;48.698;11.472;2024-01-30T11:32:37;98773.81;;;11.07;49.31
50770;BME280;36740;48.698;11.472;2024-01-30T11:35:24;98770.97;;;12.28;47.17
50770;BME280;36740;48.698;11.472;2024-01-30T11:38:14;98768.63;;;13.03;45.00
50770;BME280;36740;48.698;11.472;2024-01-30T11:41:00;98755.22;;;12.88;44.17
50770;BME280;36740;48.698;11.472;2024-01-30T11:43:55;98744.72;;;10.96;47.91
50770;BME280;36740;48.698;11.472;2024-01-30T11:46:41;98762.66;;;12.02;47.60
50770;BME280;36740;48.698;11.472;2024-01-30T11:49:27;98756.53;;;12.82;45.65
50770;BME280;36740;48.698;11.472;2024-01-30T11:52:13;98746.47;;;12.90;43.72
50770;BME280;36740;48.698;11.472;2024-01-30T11:54:59;98745.09;;;11.85;46.09
50770;BME280;36740;48.698;11.472;2024-01-30T11:57:45;98749.91;;;12.57;46.29
50770;BME280;36740;48.698;11.472;2024-01-30T12:00:31;98751.53;;;13.67;44.96
50770;BME280;36740;48.698;11.472;2024-01-30T12:03:18;98752.53;;;14.27;44.29
50770;BME280;36740;48.698;11.472;2024-01-30T12:06:04;98745.25;;;15.02;42.10
50770;BME280;36740;48.698;11.472;2024-01-30T12:09:02;98720.50;;;15.09;40.69
50770;BME280;36740;48.698;11.472;2024-01-30T12:11:51;98725.28;;;13.82;42.53
50770;BME280;36740;48.698;11.472;2024-01-30T12:14:39;98717.03;;;11.70;46.84
50770;BME280;36740;48.698;11.472;2024-01-30T12:17:30;98723.25;;;10.73;49.42
50770;BME280;36740;48.698;11.472;2024-01-30T12:20:19;98738.44;;;9.87;52.59
50770;BME280;36740;48.698;11.472;2024-01-30T12:23:06;98734.88;;;9.24;54.14
50770;BME280;36740;48.698;11.472;2024-01-30T12:25:52;98741.88;;;9.08;56.22
50770;BME280;36740;48.698;11.472;2024-01-30T12:28:47;98749.63;;;9.33;57.10
50770;BME280;36740;48.698;11.472;2024-01-30T12:31:33;98740.66;;;9.66;55.31
50770;BME280;36740;48.698;11.472;2024-01-30T12:34:19;98742.41;;;10.43;54.05
50770;BME280;36740;48.698;11.472;2024-01-30T12:37:06;98731.44;;;10.28;53.66
50770;BME280;36740;48.698;11.472;2024-01-30T12:39:54;98730.81;;;9.60;54.89
50770;BME280;36740;48.698;11.472;2024-01-30T12:42:43;98732.38;;;9.10;56.94
50770;BME280;36740;48.698;11.472;2024-01-30T12:45:31;98731.84;;;9.04;56.79
50770;BME280;36740;48.698;11.472;2024-01-30T12:48:17;98729.09;;;8.66;57.29
50770;BME280;36740;48.698;11.472;2024-01-30T12:51:03;98732.88;;;8.46;58.76
50770;BME280;36740;48.698;11.472;2024-01-30T12:53:50;98736.63;;;8.26;60.27
50770;BME280;36740;48.698;11.472;2024-01-30T12:56:35;98731.16;;;8.03;59.82
50770;BME280;36740;48.698;11.472;2024-01-30T12:59:21;98731.97;;;8.18;59.32
50770;BME280;36740;48.698;11.472;2024-01-30T13:02:07;98734.97;;;8.25;59.57
50770;BME280;36740;48.698;11.472;2024-01-30T13:04:54;98727.53;;;8.22;59.20
50770;BME280;36740;48.698;11.472;2024-01-30T13:07:40;98725.31;;;8.01;59.37
50770;BME280;36740;48.698;11.472;2024-01-30T13:10:27;98724.94;;;7.93;59.76
50770;BME280;36740;48.698;11.472;2024-01-30T13:13:13;98735.81;;;7.82;60.41
50770;BME280;36740;48.698;11.472;2024-01-30T13:15:59;98727.88;;;7.72;61.18
50770;BME280;36740;48.698;11.472;2024-01-30T13:18:44;98730.69;;;7.97;60.83
50770;BME280;36740;48.698;11.472;2024-01-30T13:21:30;98729.63;;;8.01;61.37
50770;BME280;36740;48.698;11.472;2024-01-30T13:24:16;98731.69;;;7.35;64.60
50770;BME280;36740;48.698;11.472;2024-01-30T13:27:02;98737.81;;;7.47;64.46
50770;BME280;36740;48.698;11.472;2024-01-30T13:29:51;98742.13;;;7.46;65.01
50770;BME280;36740;48.698;11.472;2024-01-30T13:32:37;98731.84;;;7.62;64.23
50770;BME280;36740;48.698;11.472;2024-01-30T13:35:23;98738.44;;;7.95;63.14
50770;BME280;36740;48.698;11.472;2024-01-30T13:38:08;98733.16;;;7.98;61.39
50770;BME280;36740;48.698;11.472;2024-01-30T13:40:54;98730.13;;;8.35;60.44
50770;BME280;36740;48.698;11.472;2024-01-30T13:43:40;98731.81;;;8.77;58.74
50770;BME280;36740;48.698;11.472;2024-01-30T13:46:26;98730.81;;;8.80;58.20
50770;BME280;36740;48.698;11.472;2024-01-30T13:49:12;98734.66;;;8.73;57.75
50770;BME280;36740;48.698;11.472;2024-01-30T13:51:57;98733.97;;;9.38;56.88
50770;BME280;36740;48.698;11.472;2024-01-30T13:54:44;98725.50;;;9.63;55.95
50770;BME280;36740;48.698;11.472;2024-01-30T13:57:30;98720.88;;;9.43;55.90
50770;BME280;36740;48.698;11.472;2024-01-30T14:00:20;98722.31;;;9.07;56.20
50770;BME280;36740;48.698;11.472;2024-01-30T14:03:07;98723.41;;;8.48;58.03
50770;BME280;36740;48.698;11.472;2024-01-30T14:05:53;98732.34;;;8.12;60.48
50770;BME280;36740;48.698;11.472;2024-01-30T14:08:39;98740.13;;;8.10;61.35
50770;BME280;36740;48.698;11.472;2024-01-30T14:11:25;98737.00;;;7.91;62.31
50770;BME280;36740;48.698;11.472;2024-01-30T14:14:11;98734.41;;;7.77;62.91
50770;BME280;36740;48.698;11.472;2024-01-30T14:16:56;98738.22;;;7.55;63.84
50770;BME280;36740;48.698;11.472;2024-01-30T14:19:43;98736.53;;;7.40;64.32
50770;BME280;36740;48.698;11.472;2024-01-30T14:22:29;98743.63;;;7.34;65.45
50770;BME280;36740;48.698;11.472;2024-01-30T14:25:15;98747.31;;;7.14;66.08
50770;BME280;36740;48.698;11.472;2024-01-30T14:28:02;98743.84;;;6.99;67.17
50770;BME280;36740;48.698;11.472;2024-01-30T14:30:47;98750.34;;;7.21;65.77